sensor_id;sensor_type;location;lat;lon;timestamp;temperature;humidity
6307;DHT22;3186;54.062;9.962;2023-02-01T00:02:00;5.40;99.90
6307;DHT22;3186;54.062;9.962;2023-02-01T00:04:27;5.40;99.90
6307;DHT22;3186;54.062;9.962;2023-02-01T00:06:53;5.40;99.90
6307;DHT22;3186;54.062;9.962;2023-02-01T00:09:18;5.40;99.90
6307;DHT22;3186;54.062;9.962;2023-02-01T00:11:44;5.40;99.90
6307;DHT22;3186;54.062;9.962;2023-02-01T00:14:10;5.30;99.90
6307;DHT22;3186;54.062;9.962;2023-02-01T00:16:36;5.30;99.90
6307;DHT22;3186;54.062;9.962;2023-02-01T00:19:09;5.30;99.90
6307;DHT22;3186;54.062;9.962;2023-02-01T00:21:35;5.30;99.90
6307;DHT22;3186;54.062;9.962;2023-02-01T00:24:01;5.30;99.90
6307;DHT22;3186;54.062;9.962;2023-02-01T00:28:58;5.30;99.90
6307;DHT22;3186;54.062;9.962;2023-02-01T00:31:24;5.30;99.90
6307;DHT22;3186;54.062;9.962;2023-02-01T00:33:50;5.40;99.90
6307;DHT22;3186;54.062;9.962;2023-02-01T00:36:16;5.40;99.90
6307;DHT22;3186;54.062;9.962;2023-02-01T00:38:42;5.40;99.90
6307;DHT22;3186;54.062;9.962;2023-02-01T00:43:38;5.40;99.90
6307;DHT22;3186;54.062;9.962;2023-02-01T00:46:04;5.40;99.90
6307;DHT22;3186;54.062;9.962;2023-02-01T00:48:30;5.40;99.90
6307;DHT22;3186;54.062;9.962;2023-02-01T00:51:04;5.40;99.90
6307;DHT22;3186;54.062;9.962;2023-02-01T00:53:31;5.40;99.90
6307;DHT22;3186;54.062;9.962;2023-02-01T00:55:57;5.40;99.90
6307;DHT22;3186;54.062;9.962;2023-02-01T00:58:23;5.40;99.90
6307;DHT22;3186;54.062;9.962;2023-02-01T01:01:23;5.40;99.90
6307;DHT22;3186;54.062;9.962;2023-02-01T01:03:55;5.40;99.90
6307;DHT22;3186;54.062;9.962;2023-02-01T01:06:23;5.40;99.90
6307;DHT22;3186;54.062;9.962;2023-02-01T01:08:51;6.30;99.90
6307;DHT22;3186;54.062;9.962;2023-02-01T01:11:21;5.50;99.90
6307;DHT22;3186;54.062;9.962;2023-02-01T01:13:49;5.50;99.90
6307;DHT22;3186;54.062;9.962;2023-02-01T01:16:15;5.50;99.90
6307;DHT22;3186;54.062;9.962;2023-02-01T01:18:42;5.50;99.90
6307;DHT22;3186;54.062;9.962;2023-02-01T01:21:09;5.50;99.90
6307;DHT22;3186;54.062;9.962;2023-02-01T01:23:35;5.40;99.90
6307;DHT22;3186;54.062;9.962;2023-02-01T01:26:08;5.50;99.90
6307;DHT22;3186;54.062;9.962;2023-02-01T01:28:35;5.50;99.90
6307;DHT22;3186;54.062;9.962;2023-02-01T01:31:00;5.40;99.90
6307;DHT22;3186;54.062;9.962;2023-02-01T01:33:26;5.50;99.90
6307;DHT22;3186;54.062;9.962;2023-02-01T01:35:52;5.40;99.90
6307;DHT22;3186;54.062;9.962;2023-02-01T01:38:18;5.40;99.90
6307;DHT22;3186;54.062;9.962;2023-02-01T01:40:47;5.40;99.90
6307;DHT22;3186;54.062;9.962;2023-02-01T01:43:17;5.40;99.90
6307;DHT22;3186;54.062;9.962;2023-02-01T01:45:45;5.50;99.90
6307;DHT22;3186;54.062;9.962;2023-02-01T01:48:25;5.50;99.90
6307;DHT22;3186;54.062;9.962;2023-02-01T01:51:06;5.40;99.90
6307;DHT22;3186;54.062;9.962;2023-02-01T01:53:37;5.50;99.90
6307;DHT22;3186;54.062;9.962;2023-02-01T01:56:04;5.40;99.90
6307;DHT22;3186;54.062;9.962;2023-02-01T01:58:32;5.40;99.90
6307;DHT22;3186;54.062;9.962;2023-02-01T02:00:59;5.50;99.90
6307;DHT22;3186;54.062;9.962;2023-02-01T02:03:57;5.40;99.90
6307;DHT22;3186;54.062;9.962;2023-02-01T02:06:30;5.40;99.90
6307;DHT22;3186;54.062;9.962;2023-02-01T02:09:00;5.40;99.90
6307;DHT22;3186;54.062;9.962;2023-02-01T02:11:26;5.50;99.90
6307;DHT22;3186;54.062;9.962;2023-02-01T02:13:54;5.50;99.90
6307;DHT22;3186;54.062;9.962;2023-02-01T02:16:46;5.50;99.90
6307;DHT22;3186;54.062;9.962;2023-02-01T02:25:25;5.50;99.90
6307;DHT22;3186;54.062;9.962;2023-02-01T02:33:57;5.50;99.90
6307;DHT22;3186;54.062;9.962;2023-02-01T02:36:43;5.50;99.90
6307;DHT22;3186;54.062;9.962;2023-02-01T02:45:05;5.50;99.90
6307;DHT22;3186;54.062;9.962;2023-02-01T02:47:56;5.50;99.90
6307;DHT22;3186;54.062;9.962;2023-02-01T02:50:36;5.50;99.90
6307;DHT22;3186;54.062;9.962;2023-02-01T02:56:13;5.60;99.90
6307;DHT22;3186;54.062;9.962;2023-02-01T02:59:00;5.50;99.90
6307;DHT22;3186;54.062;9.962;2023-02-01T03:01:46;5.50;99.90
6307;DHT22;3186;54.062;9.962;2023-02-01T03:04:31;5.50;99.90
6307;DHT22;3186;54.062;9.962;2023-02-01T03:06:57;5.60;99.90
6307;DHT22;3186;54.062;9.962;2023-02-01T03:09:26;5.60;99.90
6307;DHT22;3186;54.062;9.962;2023-02-01T03:12:01;5.60;99.90
6307;DHT22;3186;54.062;9.962;2023-02-01T03:14:50;5.60;99.90
6307;DHT22;3186;54.062;9.962;2023-02-01T03:17:22;5.60;99.90
6307;DHT22;3186;54.062;9.962;2023-02-01T03:19:52;5.60;99.90
6307;DHT22;3186;54.062;9.962;2023-02-01T03:22:21;5.70;99.90
6307;DHT22;3186;54.062;9.962;2023-02-01T03:24:53;5.70;99.90
6307;DHT22;3186;54.062;9.962;2023-02-01T03:27:45;5.60;99.90
6307;DHT22;3186;54.062;9.962;2023-02-01T03:30:30;5.60;99.90
6307;DHT22;3186;54.062;9.962;2023-02-01T03:33:00;5.60;99.90
6307;DHT22;3186;54.062;9.962;2023-02-01T03:38:19;5.60;99.90
6307;DHT22;3186;54.062;9.962;2023-02-01T03:40:51;5.70;99.90
6307;DHT22;3186;54.062;9.962;2023-02-01T03:43:20;5.70;99.90
6307;DHT22;3186;54.062;9.962;2023-02-01T03:45:52;5.60;99.90
6307;DHT22;3186;54.062;9.962;2023-02-01T03:48:22;5.60;99.90
6307;DHT22;3186;54.062;9.962;2023-02-01T03:50:50;5.60;99.90
6307;DHT22;3186;54.062;9.962;2023-02-01T03:53:20;5.60;99.90
6307;DHT22;3186;54.062;9.962;2023-02-01T03:55:48;5.50;99.90
6307;DHT22;3186;54.062;9.962;2023-02-01T03:58:16;5.40;99.90
6307;DHT22;3186;54.062;9.962;2023-02-01T04:03:17;5.40;99.90
6307;DHT22;3186;54.062;9.962;2023-02-01T04:05:42;5.40;99.90
6307;DHT22;3186;54.062;9.962;2023-02-01T04:08:09;5.40;99.90
6307;DHT22;3186;54.062;9.962;2023-02-01T04:10:35;5.40;99.90
6307;DHT22;3186;54.062;9.962;2023-02-01T04:13:01;5.40;99.90
6307;DHT22;3186;54.062;9.962;2023-02-01T04:15:26;5.40;99.90
6307;DHT22;3186;54.062;9.962;2023-02-01T04:17:52;5.40;99.90
6307;DHT22;3186;54.062;9.962;2023-02-01T04:20:18;5.30;99.90
6307;DHT22;3186;54.062;9.962;2023-02-01T04:22:44;5.20;99.90
6307;DHT22;3186;54.062;9.962;2023-02-01T04:25:10;5.30;99.90
6307;DHT22;3186;54.062;9.962;2023-02-01T04:27:36;5.30;99.90
6307;DHT22;3186;54.062;9.962;2023-02-01T04:30:03;5.30;99.90
6307;DHT22;3186;54.062;9.962;2023-02-01T04:32:29;5.30;99.90
6307;DHT22;3186;54.062;9.962;2023-02-01T04:34:55;5.30;99.90
6307;DHT22;3186;54.062;9.962;2023-02-01T04:37:21;5.30;99.90
6307;DHT22;3186;54.062;9.962;2023-02-01T04:39:47;5.30;99.90
6307;DHT22;3186;54.062;9.962;2023-02-01T04:42:13;5.30;99.90
6307;DHT22;3186;54.062;9.962;2023-02-01T04:44:39;5.40;99.90
6307;DHT22;3186;54.062;9.962;2023-02-01T04:47:07;5.40;99.90
6307;DHT22;3186;54.062;9.962;2023-02-01T04:49:33;5.30;99.90
6307;DHT22;3186;54.062;9.962;2023-02-01T04:51:59;5.30;99.90
6307;DHT22;3186;54.062;9.962;2023-02-01T04:54:25;5.30;99.90
6307;DHT22;3186;54.062;9.962;2023-02-01T04:56:50;5.30;99.90
6307;DHT22;3186;54.062;9.962;2023-02-01T04:59:16;5.20;99.90
6307;DHT22;3186;54.062;9.962;2023-02-01T05:01:42;5.00;99.90
6307;DHT22;3186;54.062;9.962;2023-02-01T05:04:08;4.80;99.90
6307;DHT22;3186;54.062;9.962;2023-02-01T05:06:34;4.80;99.90
6307;DHT22;3186;54.062;9.962;2023-02-01T05:08:59;5.00;99.90
6307;DHT22;3186;54.062;9.962;2023-02-01T05:11:25;5.00;99.90
6307;DHT22;3186;54.062;9.962;2023-02-01T05:14:09;4.90;99.90
6307;DHT22;3186;54.062;9.962;2023-02-01T05:16:35;4.90;99.90
6307;DHT22;3186;54.062;9.962;2023-02-01T05:19:01;4.90;99.90
6307;DHT22;3186;54.062;9.962;2023-02-01T05:21:26;5.00;99.90
6307;DHT22;3186;54.062;9.962;2023-02-01T05:23:52;4.80;99.90
6307;DHT22;3186;54.062;9.962;2023-02-01T05:26:42;4.80;99.90
6307;DHT22;3186;54.062;9.962;2023-02-01T05:29:09;4.80;99.90
6307;DHT22;3186;54.062;9.962;2023-02-01T05:31:35;4.70;99.90
6307;DHT22;3186;54.062;9.962;2023-02-01T05:34:01;4.70;99.90
6307;DHT22;3186;54.062;9.962;2023-02-01T05:36:27;4.70;99.90
6307;DHT22;3186;54.062;9.962;2023-02-01T05:38:53;4.70;99.90
6307;DHT22;3186;54.062;9.962;2023-02-01T05:41:19;4.70;99.90
6307;DHT22;3186;54.062;9.962;2023-02-01T05:43:45;4.70;99.90
6307;DHT22;3186;54.062;9.962;2023-02-01T05:46:11;4.70;99.90
6307;DHT22;3186;54.062;9.962;2023-02-01T05:48:41;4.80;99.90
6307;DHT22;3186;54.062;9.962;2023-02-01T05:51:08;4.80;99.90
6307;DHT22;3186;54.062;9.962;2023-02-01T05:53:34;4.80;99.90
6307;DHT22;3186;54.062;9.962;2023-02-01T05:56:00;4.60;99.90
6307;DHT22;3186;54.062;9.962;2023-02-01T05:58:26;4.60;99.90
6307;DHT22;3186;54.062;9.962;2023-02-01T06:00:52;4.70;99.90
6307;DHT22;3186;54.062;9.962;2023-02-01T06:03:18;4.70;99.90
6307;DHT22;3186;54.062;9.962;2023-02-01T06:05:45;4.70;99.90
6307;DHT22;3186;54.062;9.962;2023-02-01T06:08:11;4.60;99.90
6307;DHT22;3186;54.062;9.962;2023-02-01T06:10:37;4.60;99.90
6307;DHT22;3186;54.062;9.962;2023-02-01T06:13:03;4.70;99.90
6307;DHT22;3186;54.062;9.962;2023-02-01T06:15:30;4.70;99.90
6307;DHT22;3186;54.062;9.962;2023-02-01T06:17:55;4.60;99.90
6307;DHT22;3186;54.062;9.962;2023-02-01T06:20:22;4.60;99.90
6307;DHT22;3186;54.062;9.962;2023-02-01T06:22:48;4.60;99.90
6307;DHT22;3186;54.062;9.962;2023-02-01T06:25:13;4.50;99.90
6307;DHT22;3186;54.062;9.962;2023-02-01T06:27:39;4.60;99.90
6307;DHT22;3186;54.062;9.962;2023-02-01T06:30:06;4.50;99.90
6307;DHT22;3186;54.062;9.962;2023-02-01T06:32:33;4.50;99.90
6307;DHT22;3186;54.062;9.962;2023-02-01T06:34:58;6.80;99.90
6307;DHT22;3186;54.062;9.962;2023-02-01T06:37:26;4.40;99.90
6307;DHT22;3186;54.062;9.962;2023-02-01T06:39:55;4.40;99.90
6307;DHT22;3186;54.062;9.962;2023-02-01T06:42:20;4.50;99.90
6307;DHT22;3186;54.062;9.962;2023-02-01T06:44:46;4.40;99.90
6307;DHT22;3186;54.062;9.962;2023-02-01T06:47:12;4.40;99.90
6307;DHT22;3186;54.062;9.962;2023-02-01T06:49:38;4.40;99.90
6307;DHT22;3186;54.062;9.962;2023-02-01T06:52:04;4.40;99.90
6307;DHT22;3186;54.062;9.962;2023-02-01T06:54:29;4.40;99.90
6307;DHT22;3186;54.062;9.962;2023-02-01T06:56:59;4.40;99.90
6307;DHT22;3186;54.062;9.962;2023-02-01T06:59:25;4.30;99.90
6307;DHT22;3186;54.062;9.962;2023-02-01T07:01:51;4.40;99.90
6307;DHT22;3186;54.062;9.962;2023-02-01T07:04:16;4.40;99.90
6307;DHT22;3186;54.062;9.962;2023-02-01T07:06:42;4.40;99.90
6307;DHT22;3186;54.062;9.962;2023-02-01T07:09:08;4.40;99.90
6307;DHT22;3186;54.062;9.962;2023-02-01T07:11:34;4.40;99.90
6307;DHT22;3186;54.062;9.962;2023-02-01T07:14:00;4.40;99.90
6307;DHT22;3186;54.062;9.962;2023-02-01T07:16:26;4.40;99.90
6307;DHT22;3186;54.062;9.962;2023-02-01T07:18:52;4.50;99.90
6307;DHT22;3186;54.062;9.962;2023-02-01T07:21:19;4.40;99.90
6307;DHT22;3186;54.062;9.962;2023-02-01T07:23:45;4.40;99.90
6307;DHT22;3186;54.062;9.962;2023-02-01T07:26:12;4.50;99.90
6307;DHT22;3186;54.062;9.962;2023-02-01T07:28:39;4.50;99.90
6307;DHT22;3186;54.062;9.962;2023-02-01T07:31:08;4.50;99.90
6307;DHT22;3186;54.062;9.962;2023-02-01T07:33:34;4.50;99.90
6307;DHT22;3186;54.062;9.962;2023-02-01T07:36:04;4.50;99.90
6307;DHT22;3186;54.062;9.962;2023-02-01T07:38:30;4.60;99.90
6307;DHT22;3186;54.062;9.962;2023-02-01T07:41:01;4.60;99.90
6307;DHT22;3186;54.062;9.962;2023-02-01T07:43:28;4.60;99.90
6307;DHT22;3186;54.062;9.962;2023-02-01T07:45:54;4.60;99.90
6307;DHT22;3186;54.062;9.962;2023-02-01T07:48:21;4.70;99.90
6307;DHT22;3186;54.062;9.962;2023-02-01T07:50:47;4.80;99.90
6307;DHT22;3186;54.062;9.962;2023-02-01T07:53:13;4.80;99.90
6307;DHT22;3186;54.062;9.962;2023-02-01T07:55:40;4.80;99.90
6307;DHT22;3186;54.062;9.962;2023-02-01T07:58:06;4.80;99.90
6307;DHT22;3186;54.062;9.962;2023-02-01T08:00:32;4.90;99.90
6307;DHT22;3186;54.062;9.962;2023-02-01T08:03:16;4.90;99.90
6307;DHT22;3186;54.062;9.962;2023-02-01T08:05:42;4.90;99.90
6307;DHT22;3186;54.062;9.962;2023-02-01T08:08:07;4.80;99.90
6307;DHT22;3186;54.062;9.962;2023-02-01T08:10:34;4.90;99.90
6307;DHT22;3186;54.062;9.962;2023-02-01T08:13:01;4.80;99.90
6307;DHT22;3186;54.062;9.962;2023-02-01T08:15:28;4.90;99.90
6307;DHT22;3186;54.062;9.962;2023-02-01T08:17:55;4.90;99.90
6307;DHT22;3186;54.062;9.962;2023-02-01T08:20:22;5.00;99.90
6307;DHT22;3186;54.062;9.962;2023-02-01T08:22:57;4.90;99.90
6307;DHT22;3186;54.062;9.962;2023-02-01T08:25:23;4.90;99.90
6307;DHT22;3186;54.062;9.962;2023-02-01T08:27:49;4.90;99.90
6307;DHT22;3186;54.062;9.962;2023-02-01T08:30:15;4.90;99.90
6307;DHT22;3186;54.062;9.962;2023-02-01T08:32:41;4.90;99.90
6307;DHT22;3186;54.062;9.962;2023-02-01T08:35:07;4.90;99.90
6307;DHT22;3186;54.062;9.962;2023-02-01T08:37:33;4.90;99.90
6307;DHT22;3186;54.062;9.962;2023-02-01T08:39:59;4.90;99.90
6307;DHT22;3186;54.062;9.962;2023-02-01T08:42:25;5.00;99.90
6307;DHT22;3186;54.062;9.962;2023-02-01T08:45:09;4.90;99.90
6307;DHT22;3186;54.062;9.962;2023-02-01T08:47:35;5.00;99.90
6307;DHT22;3186;54.062;9.962;2023-02-01T08:50:01;5.10;99.90
6307;DHT22;3186;54.062;9.962;2023-02-01T08:52:27;5.10;99.90
6307;DHT22;3186;54.062;9.962;2023-02-01T08:54:53;5.10;99.90
6307;DHT22;3186;54.062;9.962;2023-02-01T08:57:19;5.20;99.90
6307;DHT22;3186;54.062;9.962;2023-02-01T08:59:44;5.10;99.90
6307;DHT22;3186;54.062;9.962;2023-02-01T09:02:15;5.10;99.90
6307;DHT22;3186;54.062;9.962;2023-02-01T09:04:41;5.00;99.90
6307;DHT22;3186;54.062;9.962;2023-02-01T09:07:09;5.00;99.90
6307;DHT22;3186;54.062;9.962;2023-02-01T09:09:36;5.10;99.90
6307;DHT22;3186;54.062;9.962;2023-02-01T09:12:03;5.00;99.90
6307;DHT22;3186;54.062;9.962;2023-02-01T09:14:29;5.00;99.90
6307;DHT22;3186;54.062;9.962;2023-02-01T09:16:55;5.00;99.90
6307;DHT22;3186;54.062;9.962;2023-02-01T09:19:21;5.00;99.90
6307;DHT22;3186;54.062;9.962;2023-02-01T09:21:47;5.00;99.90
6307;DHT22;3186;54.062;9.962;2023-02-01T09:24:13;5.10;99.90
6307;DHT22;3186;54.062;9.962;2023-02-01T09:26:39;5.10;99.90
6307;DHT22;3186;54.062;9.962;2023-02-01T09:29:05;5.00;99.90
6307;DHT22;3186;54.062;9.962;2023-02-01T09:31:40;5.10;99.90
6307;DHT22;3186;54.062;9.962;2023-02-01T09:34:07;5.20;99.90
6307;DHT22;3186;54.062;9.962;2023-02-01T09:36:33;5.20;99.90
6307;DHT22;3186;54.062;9.962;2023-02-01T09:39:00;5.20;99.90
6307;DHT22;3186;54.062;9.962;2023-02-01T09:46:34;5.40;99.90
6307;DHT22;3186;54.062;9.962;2023-02-01T09:49:08;5.40;99.90
6307;DHT22;3186;54.062;9.962;2023-02-01T09:51:47;5.60;99.90
6307;DHT22;3186;54.062;9.962;2023-02-01T09:54:24;5.50;99.90
6307;DHT22;3186;54.062;9.962;2023-02-01T09:57:05;5.50;99.90
6307;DHT22;3186;54.062;9.962;2023-02-01T10:02:19;5.60;99.90
6307;DHT22;3186;54.062;9.962;2023-02-01T10:04:47;5.60;99.90
6307;DHT22;3186;54.062;9.962;2023-02-01T10:26:20;5.90;99.90
6307;DHT22;3186;54.062;9.962;2023-02-01T10:28:50;5.90;99.90
6307;DHT22;3186;54.062;9.962;2023-02-01T10:31:17;6.00;99.90
6307;DHT22;3186;54.062;9.962;2023-02-01T10:33:58;6.10;99.90
6307;DHT22;3186;54.062;9.962;2023-02-01T10:36:32;6.30;99.90
6307;DHT22;3186;54.062;9.962;2023-02-01T10:38:58;6.00;99.90
6307;DHT22;3186;54.062;9.962;2023-02-01T10:41:34;6.10;99.90
6307;DHT22;3186;54.062;9.962;2023-02-01T10:44:03;6.20;99.90
6307;DHT22;3186;54.062;9.962;2023-02-01T10:46:30;6.10;99.90
6307;DHT22;3186;54.062;9.962;2023-02-01T10:48:58;6.10;99.90
6307;DHT22;3186;54.062;9.962;2023-02-01T10:54:37;6.00;99.90
6307;DHT22;3186;54.062;9.962;2023-02-01T10:57:11;6.00;99.90
6307;DHT22;3186;54.062;9.962;2023-02-01T10:59:44;6.00;99.90
6307;DHT22;3186;54.062;9.962;2023-02-01T11:02:33;6.10;99.90
6307;DHT22;3186;54.062;9.962;2023-02-01T11:05:02;6.00;99.90
6307;DHT22;3186;54.062;9.962;2023-02-01T11:07:29;5.90;99.90
6307;DHT22;3186;54.062;9.962;2023-02-01T11:09:56;5.80;99.90
6307;DHT22;3186;54.062;9.962;2023-02-01T11:12:34;5.80;99.90
6307;DHT22;3186;54.062;9.962;2023-02-01T11:15:23;5.80;99.90
6307;DHT22;3186;54.062;9.962;2023-02-01T11:17:52;5.80;99.90
6307;DHT22;3186;54.062;9.962;2023-02-01T11:20:34;5.90;99.90
6307;DHT22;3186;54.062;9.962;2023-02-01T11:23:02;5.90;99.90
6307;DHT22;3186;54.062;9.962;2023-02-01T11:25:29;6.00;99.90
6307;DHT22;3186;54.062;9.962;2023-02-01T11:27:56;6.00;99.90
6307;DHT22;3186;54.062;9.962;2023-02-01T11:30:32;6.10;99.90
6307;DHT22;3186;54.062;9.962;2023-02-01T11:33:00;6.10;99.90
6307;DHT22;3186;54.062;9.962;2023-02-01T11:35:27;6.00;99.90
6307;DHT22;3186;54.062;9.962;2023-02-01T11:37:58;6.00;99.90
6307;DHT22;3186;54.062;9.962;2023-02-01T11:40:36;6.10;99.90
6307;DHT22;3186;54.062;9.962;2023-02-01T11:43:27;6.10;99.90
6307;DHT22;3186;54.062;9.962;2023-02-01T11:46:01;6.00;99.90
6307;DHT22;3186;54.062;9.962;2023-02-01T11:48:32;6.10;99.90
6307;DHT22;3186;54.062;9.962;2023-02-01T12:07:48;6.10;99.90
6307;DHT22;3186;54.062;9.962;2023-02-01T12:13:16;6.00;99.90
6307;DHT22;3186;54.062;9.962;2023-02-01T12:16:09;5.80;99.90
6307;DHT22;3186;54.062;9.962;2023-02-01T12:21:22;5.70;99.90
6307;DHT22;3186;54.062;9.962;2023-02-01T12:43:54;5.80;99.90
6307;DHT22;3186;54.062;9.962;2023-02-01T12:49:06;5.70;99.90
6307;DHT22;3186;54.062;9.962;2023-02-01T12:51:41;5.60;99.90
6307;DHT22;3186;54.062;9.962;2023-02-01T13:05:03;5.50;99.90
6307;DHT22;3186;54.062;9.962;2023-02-01T13:08:10;5.60;99.90
6307;DHT22;3186;54.062;9.962;2023-02-01T13:11:20;5.50;99.90
6307;DHT22;3186;54.062;9.962;2023-02-01T13:16:14;5.40;99.90
6307;DHT22;3186;54.062;9.962;2023-02-01T13:18:45;5.40;99.90
6307;DHT22;3186;54.062;9.962;2023-02-01T13:21:16;5.40;99.90
6307;DHT22;3186;54.062;9.962;2023-02-01T13:23:46;5.40;99.90
6307;DHT22;3186;54.062;9.962;2023-02-01T13:26:12;5.40;99.90
6307;DHT22;3186;54.062;9.962;2023-02-01T13:28:48;5.50;99.90
6307;DHT22;3186;54.062;9.962;2023-02-01T13:42:02;5.30;99.90
6307;DHT22;3186;54.062;9.962;2023-02-01T13:44:37;5.20;99.90
6307;DHT22;3186;54.062;9.962;2023-02-01T13:47:26;5.40;99.90
6307;DHT22;3186;54.062;9.962;2023-02-01T13:49:58;5.50;99.90
6307;DHT22;3186;54.062;9.962;2023-02-01T13:52:43;5.50;99.90
6307;DHT22;3186;54.062;9.962;2023-02-01T13:57:41;5.40;99.90
6307;DHT22;3186;54.062;9.962;2023-02-01T14:00:28;5.40;99.90
6307;DHT22;3186;54.062;9.962;2023-02-01T14:10:56;5.50;99.90
6307;DHT22;3186;54.062;9.962;2023-02-01T14:13:40;5.50;99.90
6307;DHT22;3186;54.062;9.962;2023-02-01T14:23:41;5.50;99.90
6307;DHT22;3186;54.062;9.962;2023-02-01T14:26:11;5.50;99.90
6307;DHT22;3186;54.062;9.962;2023-02-01T14:28:41;5.40;99.90
6307;DHT22;3186;54.062;9.962;2023-02-01T14:47:41;5.40;99.90
6307;DHT22;3186;54.062;9.962;2023-02-01T14:52:40;5.50;99.90
6307;DHT22;3186;54.062;9.962;2023-02-01T14:57:46;5.50;99.90
6307;DHT22;3186;54.062;9.962;2023-02-01T15:00:24;5.50;99.90
6307;DHT22;3186;54.062;9.962;2023-02-01T15:02:51;5.90;99.90
6307;DHT22;3186;54.062;9.962;2023-02-01T15:07:51;5.50;99.90
6307;DHT22;3186;54.062;9.962;2023-02-01T15:10:20;5.50;99.90
6307;DHT22;3186;54.062;9.962;2023-02-01T15:12:46;5.40;99.90
6307;DHT22;3186;54.062;9.962;2023-02-01T15:15:19;5.40;99.90
6307;DHT22;3186;54.062;9.962;2023-02-01T15:17:57;5.50;99.90
6307;DHT22;3186;54.062;9.962;2023-02-01T15:20:29;5.50;99.90
6307;DHT22;3186;54.062;9.962;2023-02-01T15:23:00;5.50;99.90
6307;DHT22;3186;54.062;9.962;2023-02-01T15:25:38;5.50;99.90
6307;DHT22;3186;54.062;9.962;2023-02-01T15:28:05;5.50;99.90
6307;DHT22;3186;54.062;9.962;2023-02-01T15:30:35;5.50;99.90
6307;DHT22;3186;54.062;9.962;2023-02-01T15:35:47;5.50;99.90
6307;DHT22;3186;54.062;9.962;2023-02-01T15:43:22;5.50;99.90
6307;DHT22;3186;54.062;9.962;2023-02-01T15:45:49;5.50;99.90
6307;DHT22;3186;54.062;9.962;2023-02-01T15:48:30;5.50;99.90
6307;DHT22;3186;54.062;9.962;2023-02-01T15:51:01;5.50;99.90
6307;DHT22;3186;54.062;9.962;2023-02-01T15:53:27;5.50;99.90
6307;DHT22;3186;54.062;9.962;2023-02-01T15:55:59;5.50;99.90
6307;DHT22;3186;54.062;9.962;2023-02-01T15:58:27;5.50;99.90
6307;DHT22;3186;54.062;9.962;2023-02-01T16:00:59;5.50;99.90
6307;DHT22;3186;54.062;9.962;2023-02-01T16:03:44;5.50;99.90
6307;DHT22;3186;54.062;9.962;2023-02-01T16:08:55;5.50;99.90
6307;DHT22;3186;54.062;9.962;2023-02-01T16:13:53;5.40;99.90
6307;DHT22;3186;54.062;9.962;2023-02-01T16:16:19;5.50;99.90
6307;DHT22;3186;54.062;9.962;2023-02-01T16:18:45;5.40;99.90
6307;DHT22;3186;54.062;9.962;2023-02-01T16:21:11;5.40;99.90
6307;DHT22;3186;54.062;9.962;2023-02-01T16:23:37;5.40;99.90
6307;DHT22;3186;54.062;9.962;2023-02-01T16:26:04;5.40;99.90
6307;DHT22;3186;54.062;9.962;2023-02-01T16:28:31;5.40;99.90
6307;DHT22;3186;54.062;9.962;2023-02-01T16:30:58;5.50;99.90
6307;DHT22;3186;54.062;9.962;2023-02-01T16:33:24;5.50;99.90
6307;DHT22;3186;54.062;9.962;2023-02-01T16:35:50;5.50;99.90
6307;DHT22;3186;54.062;9.962;2023-02-01T16:38:19;5.50;99.90
6307;DHT22;3186;54.062;9.962;2023-02-01T16:40:47;5.50;99.90
6307;DHT22;3186;54.062;9.962;2023-02-01T16:43:19;5.50;99.90
6307;DHT22;3186;54.062;9.962;2023-02-01T16:45:46;5.60;99.90
6307;DHT22;3186;54.062;9.962;2023-02-01T16:48:28;5.60;99.90
6307;DHT22;3186;54.062;9.962;2023-02-01T16:50:56;5.60;99.90
6307;DHT22;3186;54.062;9.962;2023-02-01T16:53:24;5.60;99.90
6307;DHT22;3186;54.062;9.962;2023-02-01T16:55:50;5.60;99.90
6307;DHT22;3186;54.062;9.962;2023-02-01T16:58:18;5.50;99.90
6307;DHT22;3186;54.062;9.962;2023-02-01T17:00:46;5.60;99.90
6307;DHT22;3186;54.062;9.962;2023-02-01T17:03:13;5.60;99.90
6307;DHT22;3186;54.062;9.962;2023-02-01T17:05:48;5.60;99.90
6307;DHT22;3186;54.062;9.962;2023-02-01T17:08:18;5.60;99.90
6307;DHT22;3186;54.062;9.962;2023-02-01T17:10:45;5.50;99.90
6307;DHT22;3186;54.062;9.962;2023-02-01T17:13:15;5.60;99.90
6307;DHT22;3186;54.062;9.962;2023-02-01T17:16:27;5.60;99.90
6307;DHT22;3186;54.062;9.962;2023-02-01T17:19:11;5.60;99.90
6307;DHT22;3186;54.062;9.962;2023-02-01T17:21:48;5.60;99.90
6307;DHT22;3186;54.062;9.962;2023-02-01T17:24:18;5.60;99.90
6307;DHT22;3186;54.062;9.962;2023-02-01T17:26:44;5.70;99.90
6307;DHT22;3186;54.062;9.962;2023-02-01T17:29:11;5.70;99.90
6307;DHT22;3186;54.062;9.962;2023-02-01T17:31:38;5.60;99.90
6307;DHT22;3186;54.062;9.962;2023-02-01T17:34:05;5.70;99.90
6307;DHT22;3186;54.062;9.962;2023-02-01T17:36:31;5.60;99.90
6307;DHT22;3186;54.062;9.962;2023-02-01T17:38:57;5.60;99.90
6307;DHT22;3186;54.062;9.962;2023-02-01T17:41:23;5.60;99.90
6307;DHT22;3186;54.062;9.962;2023-02-01T17:43:51;5.60;99.90
6307;DHT22;3186;54.062;9.962;2023-02-01T17:46:17;5.60;99.90
6307;DHT22;3186;54.062;9.962;2023-02-01T17:48:45;5.70;99.90
6307;DHT22;3186;54.062;9.962;2023-02-01T17:51:16;5.60;99.90
6307;DHT22;3186;54.062;9.962;2023-02-01T17:53:43;5.70;99.90
6307;DHT22;3186;54.062;9.962;2023-02-01T17:56:16;5.70;99.90
6307;DHT22;3186;54.062;9.962;2023-02-01T17:58:42;5.60;99.90
6307;DHT22;3186;54.062;9.962;2023-02-01T18:01:14;5.60;99.90
6307;DHT22;3186;54.062;9.962;2023-02-01T18:03:41;5.60;99.90
6307;DHT22;3186;54.062;9.962;2023-02-01T18:06:13;5.60;99.90
6307;DHT22;3186;54.062;9.962;2023-02-01T18:08:40;5.60;99.90
6307;DHT22;3186;54.062;9.962;2023-02-01T18:11:12;5.60;99.90
6307;DHT22;3186;54.062;9.962;2023-02-01T18:13:39;5.60;99.90
6307;DHT22;3186;54.062;9.962;2023-02-01T18:16:05;5.60;99.90
6307;DHT22;3186;54.062;9.962;2023-02-01T18:18:31;5.60;99.90
6307;DHT22;3186;54.062;9.962;2023-02-01T18:20:58;5.60;99.90
6307;DHT22;3186;54.062;9.962;2023-02-01T18:23:25;5.60;99.90
6307;DHT22;3186;54.062;9.962;2023-02-01T18:25:51;5.50;99.90
6307;DHT22;3186;54.062;9.962;2023-02-01T18:28:18;5.60;99.90
6307;DHT22;3186;54.062;9.962;2023-02-01T18:30:47;5.60;99.90
6307;DHT22;3186;54.062;9.962;2023-02-01T18:33:15;5.60;99.90
6307;DHT22;3186;54.062;9.962;2023-02-01T18:35:41;5.60;99.90
6307;DHT22;3186;54.062;9.962;2023-02-01T18:38:08;5.50;99.90
6307;DHT22;3186;54.062;9.962;2023-02-01T18:40:52;5.50;99.90
6307;DHT22;3186;54.062;9.962;2023-02-01T18:43:18;5.40;99.90
6307;DHT22;3186;54.062;9.962;2023-02-01T18:45:46;5.30;99.90
6307;DHT22;3186;54.062;9.962;2023-02-01T18:48:14;5.30;99.90
6307;DHT22;3186;54.062;9.962;2023-02-01T18:50:42;5.30;99.90
6307;DHT22;3186;54.062;9.962;2023-02-01T18:53:19;5.30;99.90
6307;DHT22;3186;54.062;9.962;2023-02-01T18:55:48;5.30;99.90
6307;DHT22;3186;54.062;9.962;2023-02-01T18:58:16;5.30;99.90
6307;DHT22;3186;54.062;9.962;2023-02-01T19:00:43;5.20;99.90
6307;DHT22;3186;54.062;9.962;2023-02-01T19:03:15;5.20;99.90
6307;DHT22;3186;54.062;9.962;2023-02-01T19:05:43;5.10;99.90
6307;DHT22;3186;54.062;9.962;2023-02-01T19:08:09;5.10;99.90
6307;DHT22;3186;54.062;9.962;2023-02-01T19:10:35;5.10;99.90
6307;DHT22;3186;54.062;9.962;2023-02-01T19:13:03;5.10;99.90
6307;DHT22;3186;54.062;9.962;2023-02-01T19:15:30;5.10;99.90
6307;DHT22;3186;54.062;9.962;2023-02-01T19:17:57;5.10;99.90
6307;DHT22;3186;54.062;9.962;2023-02-01T19:20:24;5.10;99.90
6307;DHT22;3186;54.062;9.962;2023-02-01T19:22:51;5.00;99.90
6307;DHT22;3186;54.062;9.962;2023-02-01T19:25:19;5.00;99.90
6307;DHT22;3186;54.062;9.962;2023-02-01T19:27:46;5.10;99.90
6307;DHT22;3186;54.062;9.962;2023-02-01T19:30:12;5.10;99.90
6307;DHT22;3186;54.062;9.962;2023-02-01T19:32:39;5.00;99.90
6307;DHT22;3186;54.062;9.962;2023-02-01T19:35:06;5.00;99.90
6307;DHT22;3186;54.062;9.962;2023-02-01T19:37:33;5.00;99.90
6307;DHT22;3186;54.062;9.962;2023-02-01T19:39:58;5.00;99.90